TimePST,TemperatureF,Dew PointF,Humidity,Sea Level PressureIn,VisibilityMPH,Wind Direction,Wind SpeedMPH,Gust SpeedMPH,PrecipitationIn,Events,Conditions,WindDirDegrees,DateUTC
12:04 AM,33.8,32.0,93,30.16,3.0,Calm,Calm,-,N/A,,Overcast,0,2012-11-14 08:04:00
12:56 AM,33.1,32.0,96,30.22,3.0,Calm,Calm,-,N/A,,Overcast,0,2012-11-14 08:56:00
1:15 AM,33.8,32.0,93,30.16,3.0,Calm,Calm,-,N/A,,Overcast,0,2012-11-14 09:15:00
1:43 AM,33.8,32.0,93,30.17,2.5,Calm,Calm,-,0.00,Rain,Light Rain,0,2012-11-14 09:43:00
1:56 AM,33.1,32.0,96,30.23,3.0,Calm,Calm,-,0.00,Rain,Light Rain,0,2012-11-14 09:56:00
2:13 AM,33.8,33.8,100,30.17,2.5,Calm,Calm,-,0.00,Rain,Light Rain,0,2012-11-14 10:13:00
2:23 AM,33.8,32.0,93,30.17,1.2,Calm,Calm,-,0.02,Rain,Light Rain,0,2012-11-14 10:23:00
2:56 AM,33.1,32.0,96,30.23,2.0,Calm,Calm,-,0.02,,Overcast,0,2012-11-14 10:56:00
3:06 AM,33.8,32.0,93,30.16,1.5,Calm,Calm,-,N/A,,Overcast,0,2012-11-14 11:06:00
3:19 AM,33.8,32.0,93,30.16,2.5,Calm,Calm,-,N/A,,Overcast,0,2012-11-14 11:19:00
3:28 AM,33.8,32.0,93,30.15,2.0,Calm,Calm,-,N/A,,Overcast,0,2012-11-14 11:28:00
3:46 AM,33.8,33.8,100,30.15,3.0,Calm,Calm,-,N/A,,Overcast,0,2012-11-14 11:46:00
3:56 AM,34.0,33.1,96,30.22,3.0,Calm,Calm,-,0.00,Rain,Light Rain,0,2012-11-14 11:56:00
4:27 AM,33.8,33.8,100,30.16,3.0,Calm,Calm,-,0.00,Rain,Light Rain,0,2012-11-14 12:27:00
4:48 AM,33.8,33.8,100,30.17,2.5,Calm,Calm,-,0.01,Rain,Light Rain,0,2012-11-14 12:48:00
4:56 AM,34.0,33.1,96,30.23,2.5,Calm,Calm,-,0.01,Rain,Light Rain,0,2012-11-14 12:56:00
5:03 AM,33.8,33.8,100,30.17,4.0,Calm,Calm,-,0.00,,Overcast,0,2012-11-14 13:03:00
5:22 AM,33.8,33.8,100,30.17,2.0,Calm,Calm,-,0.00,Rain,Light Rain,0,2012-11-14 13:22:00
5:37 AM,33.8,33.8,100,30.17,3.0,Calm,Calm,-,0.00,,Overcast,0,2012-11-14 13:37:00
5:43 AM,33.8,33.8,100,30.17,1.8,Calm,Calm,-,0.00,,Overcast,0,2012-11-14 13:43:00
5:56 AM,34.0,33.1,96,30.24,2.0,Calm,Calm,-,0.00,,Overcast,0,2012-11-14 13:56:00
6:13 AM,33.8,33.8,100,30.18,3.0,Calm,Calm,-,N/A,,Overcast,0,2012-11-14 14:13:00
6:28 AM,33.8,32.0,93,30.18,2.5,Calm,Calm,-,N/A,,Overcast,0,2012-11-14 14:28:00
6:56 AM,33.1,33.1,100,30.26,3.0,Calm,Calm,-,N/A,,Overcast,0,2012-11-14 14:56:00
7:25 AM,33.8,33.8,100,30.20,1.8,Calm,Calm,-,N/A,,Overcast,0,2012-11-14 15:25:00
7:56 AM,34.0,33.1,96,30.28,3.0,Calm,Calm,-,N/A,,Overcast,0,2012-11-14 15:56:00
8:33 AM,35.6,33.8,93,30.22,4.0,Calm,Calm,-,N/A,,Overcast,0,2012-11-14 16:33:00
8:56 AM,37.0,35.1,93,30.28,4.0,Calm,Calm,-,N/A,,Overcast,0,2012-11-14 16:56:00
9:21 AM,37.4,35.6,93,30.23,2.0,Calm,Calm,-,0.01,Rain,Light Rain,0,2012-11-14 17:21:00
9:36 AM,37.4,35.6,93,30.23,1.0,Calm,Calm,-,0.03,Rain,Light Rain,0,2012-11-14 17:36:00
9:44 AM,37.4,35.6,93,30.23,0.8,Calm,Calm,-,0.04,Rain,Rain,0,2012-11-14 17:44:00
9:56 AM,37.0,36.0,96,30.29,1.0,Calm,Calm,-,0.05,Rain,Light Rain,0,2012-11-14 17:56:00
10:05 AM,37.4,37.4,100,30.23,3.0,Calm,Calm,-,0.00,,Overcast,0,2012-11-14 18:05:00
10:56 AM,39.9,37.0,89,30.29,10.0,Calm,Calm,-,0.00,,Overcast,0,2012-11-14 18:56:00
11:28 AM,41.0,37.4,87,30.23,10.0,Calm,Calm,-,N/A,,Overcast,0,2012-11-14 19:28:00
11:56 AM,41.0,37.9,89,30.29,10.0,Calm,Calm,-,N/A,,Overcast,0,2012-11-14 19:56:00
12:08 PM,41.0,37.4,87,30.23,10.0,Calm,Calm,-,N/A,,Overcast,0,2012-11-14 20:08:00
12:56 PM,41.0,37.9,89,30.28,10.0,Calm,Calm,-,N/A,,Mostly Cloudy,0,2012-11-14 20:56:00
1:56 PM,42.1,37.9,85,30.28,10.0,Calm,Calm,-,N/A,,Mostly Cloudy,0,2012-11-14 21:56:00
2:56 PM,42.1,37.0,82,30.28,10.0,Calm,Calm,-,0.00,,Mostly Cloudy,0,2012-11-14 22:56:00
3:20 PM,39.2,35.6,87,30.24,10.0,North,3.5,-,N/A,,Overcast,10,2012-11-14 23:20:00
3:56 PM,37.9,37.0,97,30.30,10.0,Calm,Calm,-,0.00,,Overcast,0,2012-11-14 23:56:00
4:31 PM,37.4,35.6,93,30.24,10.0,Calm,Calm,-,N/A,,Overcast,0,2012-11-15 00:31:00
4:56 PM,36.0,35.1,97,30.30,10.0,Calm,Calm,-,N/A,,Overcast,0,2012-11-15 00:56:00
5:09 PM,35.6,33.8,93,30.24,10.0,Calm,Calm,-,N/A,,Scattered Clouds,0,2012-11-15 01:09:00
5:18 PM,33.8,33.8,100,30.25,10.0,Calm,Calm,-,N/A,,Scattered Clouds,0,2012-11-15 01:18:00
5:26 PM,33.8,33.8,100,30.25,10.0,Calm,Calm,-,N/A,,Mostly Cloudy,0,2012-11-15 01:26:00
5:56 PM,33.1,32.0,96,30.32,6.0,Calm,Calm,-,N/A,,Mostly Cloudy,0,2012-11-15 01:56:00
6:32 PM,30.2,30.2,100,30.25,10.0,Calm,Calm,-,N/A,,Scattered Clouds,0,2012-11-15 02:32:00
6:56 PM,30.9,28.9,92,30.33,7.0,Calm,Calm,-,N/A,,Mostly Cloudy,0,2012-11-15 02:56:00
7:01 PM,30.2,28.4,93,30.25,1.5,Calm,Calm,-,N/A,,Mostly Cloudy,0,2012-11-15 03:01:00
7:07 PM,30.2,30.2,100,30.25,0.2,Calm,Calm,-,N/A,Fog,Light Freezing Fog,0,2012-11-15 03:07:00
7:27 PM,30.2,28.4,93,30.25,0.8,Calm,Calm,-,N/A,,Mist,0,2012-11-15 03:27:00
7:56 PM,30.0,28.0,92,30.33,0.5,Calm,Calm,-,N/A,Fog,Light Freezing Fog,0,2012-11-15 03:56:00
8:07 PM,30.2,28.4,93,30.25,2.0,Calm,Calm,-,N/A,,Overcast,0,2012-11-15 04:07:00
8:17 PM,28.4,28.4,100,30.25,0.8,Calm,Calm,-,N/A,,Mist,0,2012-11-15 04:17:00
8:36 PM,28.4,28.4,100,30.26,1.0,Calm,Calm,-,N/A,,Mist,0,2012-11-15 04:36:00
8:44 PM,28.4,26.6,93,30.25,3.0,Calm,Calm,-,N/A,,Mostly Cloudy,0,2012-11-15 04:44:00
8:56 PM,28.9,27.0,92,30.33,8.0,Calm,Calm,-,N/A,,Mostly Cloudy,0,2012-11-15 04:56:00
9:04 PM,28.4,26.6,93,30.25,10.0,Calm,Calm,-,N/A,,Mostly Cloudy,0,2012-11-15 05:04:00
9:37 PM,28.4,26.6,93,30.25,1.5,Calm,Calm,-,N/A,,Overcast,0,2012-11-15 05:37:00
9:56 PM,28.0,26.1,92,30.33,1.5,Calm,Calm,-,N/A,,Mostly Cloudy,0,2012-11-15 05:56:00
10:04 PM,28.4,26.6,93,30.25,3.0,Calm,Calm,-,N/A,,Mostly Cloudy,0,2012-11-15 06:04:00
10:15 PM,26.6,24.8,93,30.25,10.0,Calm,Calm,-,N/A,,Partly Cloudy,0,2012-11-15 06:15:00
10:56 PM,27.0,25.0,92,30.32,10.0,Calm,Calm,-,N/A,,Clear,0,2012-11-15 06:56:00
11:56 PM,32.0,30.0,92,30.30,7.0,Calm,Calm,-,N/A,,Clear,0,2012-11-15 07:56:00